createdAt,value
2023-01-20T00:01:35.226Z,10.83
2023-01-20T00:04:03.442Z,10.80
2023-01-20T00:06:31.468Z,10.71
2023-01-20T00:09:00.552Z,10.73
2023-01-20T00:11:28.701Z,10.55
2023-01-20T00:13:58.381Z,10.53
2023-01-20T00:16:26.407Z,10.48
2023-01-20T00:18:54.515Z,10.67
2023-01-20T00:21:22.535Z,10.70
2023-01-20T00:23:50.521Z,10.80
2023-01-20T00:26:19.325Z,11.11
2023-01-20T00:28:47.699Z,11.27
2023-01-20T00:31:18.152Z,11.60
2023-01-20T00:33:46.206Z,12.30
2023-01-20T00:36:14.314Z,12.45
2023-01-20T00:38:42.277Z,12.90
2023-01-20T00:41:10.308Z,13.19
2023-01-20T00:43:38.273Z,13.40
2023-01-20T00:46:06.384Z,13.58
2023-01-20T00:48:35.839Z,13.71
2023-01-20T00:51:03.964Z,13.92
2023-01-20T00:53:31.953Z,14.19
2023-01-20T00:55:59.906Z,14.28
2023-01-20T00:58:27.874Z,14.34
2023-01-20T01:00:56.352Z,14.42
2023-01-20T01:03:24.404Z,14.54
2023-01-20T01:05:53.770Z,14.73
2023-01-20T01:08:21.776Z,14.76
2023-01-20T01:10:49.745Z,14.77
2023-01-20T01:13:17.684Z,14.71
2023-01-20T01:15:49.650Z,14.72
2023-01-20T01:18:17.836Z,14.69
2023-01-20T01:20:45.826Z,14.72
2023-01-20T01:23:15.124Z,14.79
2023-01-20T01:25:43.049Z,14.83
2023-01-20T01:28:10.982Z,15.04
2023-01-20T01:30:38.960Z,15.15
2023-01-20T01:33:06.931Z,15.16
2023-01-20T01:35:34.889Z,15.06
2023-01-20T01:38:02.838Z,15.04
2023-01-20T01:40:32.153Z,15.04
2023-01-20T01:43:00.110Z,15.11
2023-01-20T01:45:29.200Z,15.14
2023-01-20T01:48:06.198Z,15.11
2023-01-20T01:50:38.837Z,15.02
2023-01-20T01:53:06.763Z,15.07
2023-01-20T01:55:37.303Z,15.08
2023-01-20T01:58:05.233Z,15.03
2023-01-20T02:00:33.180Z,15.06
2023-01-20T02:03:01.139Z,15.09
2023-01-20T02:05:29.112Z,15.08
2023-01-20T02:07:57.020Z,14.93
2023-01-20T02:10:24.944Z,14.95
2023-01-20T02:12:54.269Z,14.95
2023-01-20T02:15:25.063Z,14.95
2023-01-20T02:18:00.019Z,14.92
2023-01-20T02:20:51.686Z,14.92
2023-01-20T02:23:26.206Z,14.98
2023-01-20T02:26:19.588Z,15.15
2023-01-20T02:29:14.387Z,15.19
2023-01-20T02:32:32.622Z,15.16
2023-01-20T02:35:03.982Z,15.15
2023-01-20T02:37:33.960Z,15.06
2023-01-20T02:40:09.861Z,14.95
2023-01-20T02:42:39.649Z,14.93
2023-01-20T02:45:10.210Z,14.86
2023-01-20T02:47:39.471Z,14.83
2023-01-20T02:50:10.065Z,14.88
2023-01-20T02:52:40.456Z,14.79
2023-01-20T02:55:09.723Z,14.86
2023-01-20T02:57:40.641Z,15.08
2023-01-20T03:00:10.727Z,15.18
2023-01-20T03:02:38.708Z,15.22
2023-01-20T03:05:09.785Z,15.17
2023-01-20T03:07:38.586Z,15.06
2023-01-20T03:10:08.309Z,15.06
2023-01-20T03:12:48.259Z,15.03
2023-01-20T03:15:16.651Z,14.97
2023-01-20T03:17:44.804Z,14.92
2023-01-20T03:20:14.547Z,14.88
2023-01-20T03:22:42.509Z,14.81
2023-01-20T03:25:11.039Z,14.78
2023-01-20T03:27:38.970Z,14.74
2023-01-20T03:30:10.481Z,14.67
2023-01-20T03:32:38.423Z,14.37
2023-01-20T03:35:06.880Z,13.77
2023-01-20T03:37:36.166Z,13.09
2023-01-20T03:40:04.202Z,12.65
2023-01-20T03:42:32.946Z,12.46
2023-01-20T03:45:02.603Z,12.25
2023-01-20T03:47:40.101Z,12.10
2023-01-20T03:50:10.100Z,12.01
2023-01-20T03:52:46.979Z,11.90
2023-01-20T03:55:17.600Z,11.76
2023-01-20T03:57:47.944Z,11.74
2023-01-20T04:00:16.650Z,11.69
2023-01-20T04:02:45.022Z,11.58
2023-01-20T04:05:13.301Z,11.50
2023-01-20T04:07:42.680Z,11.37
2023-01-20T04:10:12.427Z,11.21
2023-01-20T04:12:40.351Z,11.06
2023-01-20T04:15:09.170Z,10.91
2023-01-20T04:17:37.100Z,10.92
2023-01-20T04:20:06.429Z,10.85
2023-01-20T04:22:37.274Z,10.74
2023-01-20T04:25:09.548Z,10.68
2023-01-20T04:27:37.480Z,10.72
2023-01-20T04:30:06.055Z,10.63
2023-01-20T04:32:34.023Z,10.61
2023-01-20T04:35:01.995Z,10.59
2023-01-20T04:37:29.939Z,10.59
2023-01-20T04:39:57.899Z,10.54
2023-01-20T04:42:27.270Z,10.49
2023-01-20T04:44:55.198Z,10.56
2023-01-20T04:47:23.184Z,10.40
2023-01-20T04:49:51.170Z,10.26
2023-01-20T04:52:19.159Z,10.19
2023-01-20T04:54:47.336Z,10.02
2023-01-20T04:57:15.322Z,9.96
2023-01-20T04:59:44.741Z,9.85
2023-01-20T05:02:12.734Z,9.75
2023-01-20T05:04:40.712Z,9.68
2023-01-20T05:07:08.635Z,9.62
2023-01-20T05:09:36.580Z,9.48
2023-01-20T05:12:04.789Z,9.32
2023-01-20T05:14:32.915Z,9.11
2023-01-20T05:17:02.259Z,9.13
2023-01-20T05:19:30.243Z,9.15
2023-01-20T05:21:58.203Z,9.05
2023-01-20T05:24:26.196Z,8.95
2023-01-20T05:26:54.153Z,9.02
2023-01-20T05:29:22.213Z,9.14
2023-01-20T05:31:50.239Z,9.09
2023-01-20T05:34:19.595Z,9.24
2023-01-20T05:36:47.535Z,9.35
2023-01-20T05:39:15.504Z,10.18
2023-01-20T05:41:44.513Z,10.98
2023-01-20T05:44:12.494Z,11.45
2023-01-20T05:46:40.520Z,11.81
2023-01-20T05:49:08.538Z,12.16
2023-01-20T05:51:39.947Z,12.47
2023-01-20T05:54:07.912Z,12.89
2023-01-20T05:56:35.867Z,13.00
2023-01-20T05:59:04.814Z,12.99
2023-01-20T06:01:32.846Z,12.98
2023-01-20T06:04:00.952Z,13.16
2023-01-20T06:06:28.925Z,13.30
2023-01-20T06:08:58.269Z,13.50
2023-01-20T06:11:26.251Z,13.57
2023-01-20T06:13:54.237Z,13.73
2023-01-20T06:16:22.218Z,13.82
2023-01-20T06:18:50.157Z,14.10
2023-01-20T06:21:18.110Z,14.27
2023-01-20T06:23:46.048Z,14.49
2023-01-20T06:26:15.405Z,14.48
2023-01-20T06:28:43.420Z,14.64
2023-01-20T06:31:13.052Z,14.71
2023-01-20T06:33:41.076Z,14.84
2023-01-20T06:36:09.361Z,14.81
2023-01-20T06:38:37.391Z,14.78
2023-01-20T06:41:06.264Z,14.80
2023-01-20T06:43:40.000Z,14.82
2023-01-20T06:46:08.623Z,14.88
2023-01-20T06:48:37.211Z,14.81
2023-01-20T06:51:06.007Z,14.75
2023-01-20T06:53:34.126Z,14.77
2023-01-20T06:56:02.255Z,14.78
2023-01-20T06:58:31.005Z,14.91
2023-01-20T07:01:05.094Z,15.16
2023-01-20T07:03:33.128Z,15.21
2023-01-20T07:06:01.863Z,15.26
2023-01-20T07:08:29.828Z,15.61
2023-01-20T07:10:57.810Z,15.64
2023-01-20T07:13:25.761Z,15.67
2023-01-20T07:15:54.211Z,15.83
2023-01-20T07:18:23.516Z,15.97
2023-01-20T07:20:54.778Z,16.02
2023-01-20T07:23:22.813Z,16.16
2023-01-20T07:25:58.521Z,16.22
2023-01-20T07:28:26.514Z,16.42
2023-01-20T07:30:54.501Z,16.32
2023-01-20T07:33:23.876Z,16.44
2023-01-20T07:35:55.254Z,16.52
2023-01-20T07:38:23.196Z,16.53
2023-01-20T07:40:51.185Z,16.56
2023-01-20T07:43:19.188Z,16.71
2023-01-20T07:45:47.230Z,16.79
2023-01-20T07:48:15.274Z,16.89
2023-01-20T07:50:44.582Z,17.07
2023-01-20T07:53:12.583Z,17.16
2023-01-20T07:55:40.541Z,17.30
2023-01-20T07:58:08.463Z,17.45
2023-01-20T08:00:36.424Z,17.51
2023-01-20T08:03:04.440Z,17.39
2023-01-20T08:05:33.520Z,17.33
2023-01-20T08:08:02.911Z,17.19
2023-01-20T08:10:31.162Z,17.08
2023-01-20T08:12:59.425Z,17.08
2023-01-20T08:15:27.346Z,17.17
2023-01-20T08:17:55.306Z,17.23
2023-01-20T08:20:23.273Z,17.34
2023-01-20T08:22:51.254Z,17.33
2023-01-20T08:25:20.552Z,17.42
2023-01-20T08:27:50.179Z,17.57
2023-01-20T08:30:18.744Z,17.70
2023-01-20T08:32:46.741Z,17.91
2023-01-20T08:35:14.889Z,18.03
2023-01-20T08:37:42.958Z,17.97
2023-01-20T08:40:11.948Z,18.21
2023-01-20T08:42:41.294Z,18.25
2023-01-20T08:45:10.107Z,18.28
2023-01-20T08:47:38.123Z,18.18
2023-01-20T08:50:06.760Z,18.03
2023-01-20T08:52:35.460Z,17.99
2023-01-20T08:55:03.451Z,17.91
2023-01-20T08:57:31.387Z,18.00
2023-01-20T09:00:00.714Z,17.95
2023-01-20T09:02:28.685Z,18.13
2023-01-20T09:04:56.696Z,18.53
2023-01-20T09:07:24.618Z,18.86
2023-01-20T09:09:52.577Z,19.01
2023-01-20T09:12:20.549Z,19.16
2023-01-20T09:14:48.490Z,19.26
2023-01-20T09:17:17.811Z,19.83
2023-01-20T09:19:45.761Z,20.17
2023-01-20T09:22:15.796Z,20.36
2023-01-20T09:24:44.485Z,20.48
2023-01-20T09:27:12.414Z,20.72
2023-01-20T09:29:40.391Z,20.69
2023-01-20T09:32:08.317Z,20.88
2023-01-20T09:34:37.676Z,21.10
2023-01-20T09:37:19.491Z,20.62
2023-01-20T09:40:04.664Z,19.85
2023-01-20T09:42:53.255Z,19.22
2023-01-20T09:45:26.175Z,18.88
2023-01-20T09:47:55.889Z,18.68
2023-01-20T09:51:02.161Z,18.32
2023-01-20T09:53:38.881Z,17.88
2023-01-20T09:56:10.384Z,17.89
2023-01-20T09:58:39.528Z,17.69
2023-01-20T10:01:11.259Z,17.62
2023-01-20T10:03:42.056Z,17.55
2023-01-20T10:06:14.086Z,17.55
2023-01-20T10:08:59.784Z,17.47
2023-01-20T10:11:34.362Z,17.62
2023-01-20T10:14:06.906Z,17.55
2023-01-20T10:16:37.906Z,17.51
2023-01-20T10:19:07.840Z,17.56
2023-01-20T10:21:38.125Z,17.57
2023-01-20T10:24:09.486Z,17.44
2023-01-20T10:26:39.826Z,17.01
2023-01-20T10:29:11.207Z,16.93
2023-01-20T10:31:40.025Z,16.82
2023-01-20T10:34:12.079Z,16.45
2023-01-20T10:36:41.512Z,15.73
2023-01-20T10:39:14.608Z,15.14
2023-01-20T10:41:44.643Z,14.59
2023-01-20T10:44:13.299Z,14.00
2023-01-20T10:46:54.831Z,13.50
2023-01-20T10:49:33.709Z,13.15
2023-01-20T10:52:13.876Z,13.02
2023-01-20T10:54:45.235Z,12.77
2023-01-20T10:57:15.262Z,12.65
2023-01-20T10:59:44.206Z,12.43
2023-01-20T11:02:16.410Z,12.45
2023-01-20T11:04:44.599Z,12.31
2023-01-20T11:07:18.399Z,12.24
2023-01-20T11:09:46.328Z,12.18
2023-01-20T11:12:16.387Z,12.00
2023-01-20T11:14:44.485Z,11.96
2023-01-20T11:17:15.249Z,12.04
2023-01-20T11:19:48.140Z,12.12
2023-01-20T11:22:22.559Z,12.51
2023-01-20T11:24:51.126Z,12.70
2023-01-20T11:27:21.441Z,12.80
2023-01-20T11:29:50.987Z,12.86
2023-01-20T11:32:29.440Z,12.96
2023-01-20T11:34:57.509Z,12.80
2023-01-20T11:37:27.038Z,12.80
2023-01-20T11:40:00.380Z,12.89
2023-01-20T11:42:29.362Z,12.82
2023-01-20T11:45:05.704Z,12.97
2023-01-20T11:47:46.312Z,13.03
2023-01-20T11:50:24.830Z,13.25
2023-01-20T11:52:54.143Z,13.28
2023-01-20T11:55:23.377Z,13.30
2023-01-20T11:57:53.399Z,13.34
2023-01-20T12:00:31.759Z,13.21
2023-01-20T12:03:00.772Z,13.44
2023-01-20T12:05:31.042Z,13.76
2023-01-20T12:08:00.596Z,13.88
2023-01-20T12:10:29.755Z,13.98
2023-01-20T12:12:59.393Z,14.00
2023-01-20T12:15:28.507Z,14.03
2023-01-20T12:17:57.649Z,13.99
2023-01-20T12:20:29.112Z,14.01
2023-01-20T12:23:14.390Z,13.97
2023-01-20T12:25:45.876Z,14.14
2023-01-20T12:28:15.303Z,14.33
2023-01-20T12:30:53.463Z,14.16
2023-01-20T12:33:24.091Z,14.23
2023-01-20T12:36:33.870Z,14.26
2023-01-20T12:39:11.275Z,14.32
2023-01-20T12:41:49.339Z,14.26
2023-01-20T12:44:19.714Z,14.29
2023-01-20T12:46:48.280Z,14.38
2023-01-20T12:49:43.830Z,14.40
2023-01-20T12:52:20.374Z,14.44
2023-01-20T12:55:05.637Z,14.29
2023-01-20T12:57:44.102Z,14.18
2023-01-20T13:00:24.970Z,14.29
2023-01-20T13:03:28.611Z,14.21
2023-01-20T13:06:09.264Z,13.98
2023-01-20T13:08:39.193Z,14.00
2023-01-20T13:11:15.658Z,13.91
2023-01-20T13:13:56.963Z,13.98
2023-01-20T13:16:31.773Z,13.91
2023-01-20T13:19:04.081Z,14.04
2023-01-20T13:21:32.719Z,14.02
2023-01-20T13:24:00.941Z,14.13
2023-01-20T13:26:30.576Z,14.09
2023-01-20T13:29:00.538Z,14.19
2023-01-20T13:31:45.252Z,14.08
2023-01-20T13:34:35.704Z,13.88
2023-01-20T13:37:24.177Z,13.86
2023-01-20T13:39:53.266Z,13.84
2023-01-20T13:42:50.329Z,13.71
2023-01-20T13:45:27.800Z,13.66
2023-01-20T13:48:03.898Z,13.75
2023-01-20T13:50:33.125Z,13.55
2023-01-20T13:53:29.349Z,13.60
2023-01-20T13:56:02.070Z,13.56
2023-01-20T13:58:32.586Z,13.55
2023-01-20T14:01:02.649Z,13.55
2023-01-20T14:03:31.353Z,13.38
2023-01-20T14:06:00.854Z,13.28
2023-01-20T14:08:29.747Z,13.12
2023-01-20T14:11:14.049Z,13.12
2023-01-20T14:13:43.377Z,13.13
2023-01-20T14:16:20.041Z,13.13
2023-01-20T14:18:48.037Z,13.09
2023-01-20T14:21:19.216Z,13.02
2023-01-20T14:23:47.277Z,13.00
2023-01-20T14:26:16.077Z,12.99
2023-01-20T14:28:50.252Z,12.93
2023-01-20T14:31:36.534Z,12.87
2023-01-20T14:34:28.228Z,12.74
2023-01-20T14:36:56.845Z,12.77
2023-01-20T14:39:25.677Z,12.79
2023-01-20T14:41:54.215Z,12.82
2023-01-20T14:44:24.190Z,12.79
2023-01-20T14:46:53.136Z,12.83
2023-01-20T14:49:22.694Z,12.84
2023-01-20T14:51:51.187Z,12.82
2023-01-20T14:54:35.109Z,12.82
2023-01-20T14:57:17.538Z,12.80
2023-01-20T14:59:46.973Z,12.78
2023-01-20T15:02:19.665Z,12.57
2023-01-20T15:04:49.020Z,12.78
2023-01-20T15:07:20.008Z,12.76
2023-01-20T15:09:52.815Z,12.74
2023-01-20T15:12:39.618Z,12.68
2023-01-20T15:15:18.936Z,12.67
2023-01-20T15:18:06.079Z,12.60
2023-01-20T15:20:34.569Z,12.53
2023-01-20T15:23:02.572Z,12.51
2023-01-20T15:25:30.538Z,12.36
2023-01-20T15:27:58.450Z,12.39
2023-01-20T15:30:29.922Z,12.36
2023-01-20T15:32:57.896Z,12.48
2023-01-20T15:35:26.949Z,12.50
2023-01-20T15:37:55.293Z,12.53
2023-01-20T15:40:24.355Z,12.43
2023-01-20T15:42:53.509Z,12.49
2023-01-20T15:45:21.686Z,12.48
2023-01-20T15:47:51.179Z,12.40
2023-01-20T15:50:20.753Z,12.38
2023-01-20T15:52:48.790Z,12.34
2023-01-20T15:55:18.105Z,12.27
2023-01-20T15:57:46.233Z,12.32
2023-01-20T16:00:18.064Z,12.32
2023-01-20T16:02:46.399Z,12.35
2023-01-20T16:05:17.554Z,12.33
2023-01-20T16:07:47.828Z,12.30
2023-01-20T16:10:17.798Z,12.26
2023-01-20T16:12:45.981Z,12.30
2023-01-20T16:15:17.886Z,12.39
2023-01-20T16:17:45.833Z,12.34
2023-01-20T16:20:22.969Z,12.37
2023-01-20T16:22:51.625Z,12.31
2023-01-20T16:25:19.628Z,12.34
2023-01-20T16:27:47.637Z,12.33
2023-01-20T16:30:20.092Z,12.36
2023-01-20T16:32:48.244Z,12.32
2023-01-20T16:35:16.484Z,12.42
2023-01-20T16:37:46.029Z,12.47
2023-01-20T16:40:15.019Z,12.50
2023-01-20T16:42:43.148Z,12.53
2023-01-20T16:45:22.138Z,12.54
2023-01-20T16:47:50.272Z,12.52
2023-01-20T16:50:18.540Z,12.55
2023-01-20T16:52:47.927Z,12.50
2023-01-20T16:55:16.059Z,12.53
2023-01-20T16:57:44.348Z,12.57
2023-01-20T17:00:13.221Z,12.55
2023-01-20T17:02:41.183Z,12.59
2023-01-20T17:05:09.898Z,12.58
2023-01-20T17:07:37.870Z,12.00
2023-01-20T17:10:08.457Z,11.59
2023-01-20T17:12:36.439Z,11.20
2023-01-20T17:15:04.630Z,10.55
2023-01-20T17:17:33.863Z,10.09
2023-01-20T17:20:01.817Z,9.84
2023-01-20T17:22:29.839Z,9.76
2023-01-20T17:24:57.844Z,9.48
2023-01-20T17:27:27.194Z,9.40
2023-01-20T17:29:55.208Z,9.38
2023-01-20T17:32:23.164Z,9.31
2023-01-20T17:34:51.194Z,9.30
2023-01-20T17:37:19.107Z,9.22
2023-01-20T17:39:47.865Z,9.18
2023-01-20T17:42:17.635Z,9.15
2023-01-20T17:44:47.087Z,9.02
2023-01-20T17:47:15.059Z,8.92
2023-01-20T17:49:43.004Z,8.94
2023-01-20T17:52:10.980Z,8.95
2023-01-20T17:54:38.911Z,8.90
2023-01-20T17:57:06.877Z,8.86
2023-01-20T17:59:34.812Z,8.83
2023-01-20T18:02:05.549Z,8.40
2023-01-20T18:04:33.544Z,8.00
2023-01-20T18:07:01.559Z,7.71
2023-01-20T18:09:29.520Z,7.58
2023-01-20T18:11:57.483Z,7.53
2023-01-20T18:14:25.993Z,7.39
2023-01-20T18:16:54.503Z,7.30
2023-01-20T18:19:23.867Z,7.31
2023-01-20T18:21:51.767Z,7.21
2023-01-20T18:24:19.733Z,7.35
2023-01-20T18:26:47.730Z,7.05
2023-01-20T18:29:16.596Z,6.72
2023-01-20T18:31:44.811Z,6.41
2023-01-20T18:34:13.324Z,6.21
2023-01-20T18:36:44.947Z,6.14
2023-01-20T18:39:14.988Z,6.13
2023-01-20T18:41:43.276Z,6.16
2023-01-20T18:44:11.400Z,6.15
2023-01-20T18:46:39.405Z,5.96
2023-01-20T18:49:09.580Z,5.95
2023-01-20T18:51:37.761Z,5.79
2023-01-20T18:54:09.639Z,5.76
2023-01-20T18:56:37.661Z,5.70
2023-01-20T18:59:06.265Z,5.63
2023-01-20T19:01:34.997Z,5.47
2023-01-20T19:04:03.260Z,5.43
2023-01-20T19:06:31.921Z,5.41
2023-01-20T19:09:00.102Z,5.47
2023-01-20T19:11:31.371Z,5.47
2023-01-20T19:13:59.565Z,5.45
2023-01-20T19:16:28.340Z,5.50
2023-01-20T19:18:57.100Z,5.57
2023-01-20T19:21:25.331Z,5.53
2023-01-20T19:23:53.909Z,5.54
2023-01-20T19:26:21.945Z,5.53
2023-01-20T19:28:56.928Z,5.53
2023-01-20T19:31:24.998Z,5.57
2023-01-20T19:33:53.091Z,5.61
2023-01-20T19:36:21.148Z,5.71
2023-01-20T19:38:49.143Z,5.73
2023-01-20T19:41:17.982Z,5.74
2023-01-20T19:43:45.984Z,5.81
2023-01-20T19:46:16.480Z,5.78
2023-01-20T19:48:44.525Z,5.76
2023-01-20T19:51:13.736Z,5.69
2023-01-20T19:53:42.189Z,5.75
2023-01-20T19:56:11.062Z,5.79
2023-01-20T19:58:39.089Z,5.79
2023-01-20T20:01:07.774Z,5.77
2023-01-20T20:03:37.225Z,5.74
2023-01-20T20:06:05.536Z,5.77
2023-01-20T20:08:33.658Z,5.74
2023-01-20T20:11:01.680Z,5.73
2023-01-20T20:13:29.603Z,5.84
2023-01-20T20:16:03.805Z,5.85
2023-01-20T20:18:31.804Z,5.91
2023-01-20T20:21:01.108Z,5.90
2023-01-20T20:23:29.953Z,6.00
2023-01-20T20:25:57.921Z,5.88
2023-01-20T20:28:25.987Z,5.83
2023-01-20T20:30:55.570Z,5.78
2023-01-20T20:33:24.297Z,5.82
2023-01-20T20:35:52.364Z,5.77
2023-01-20T20:38:21.637Z,5.74
2023-01-20T20:40:49.564Z,5.71
2023-01-20T20:43:17.510Z,5.60
2023-01-20T20:45:45.447Z,5.49
2023-01-20T20:48:13.372Z,5.31
2023-01-20T20:50:41.283Z,5.23
2023-01-20T20:53:09.203Z,5.09
2023-01-20T20:55:41.582Z,5.04
2023-01-20T20:58:09.674Z,5.07
2023-01-20T21:00:37.772Z,5.09
2023-01-20T21:03:06.858Z,5.06
2023-01-20T21:05:34.980Z,5.15
2023-01-20T21:08:04.783Z,5.20
2023-01-20T21:10:32.727Z,5.27
2023-01-20T21:13:02.018Z,5.33
2023-01-20T21:15:30.588Z,5.39
2023-01-20T21:17:58.537Z,5.40
2023-01-20T21:20:26.599Z,5.41
2023-01-20T21:22:54.519Z,5.42
2023-01-20T21:25:25.069Z,5.40
2023-01-20T21:27:53.034Z,5.37
2023-01-20T21:30:22.570Z,5.37
2023-01-20T21:32:50.528Z,5.44
2023-01-20T21:35:18.527Z,5.43
2023-01-20T21:37:46.468Z,5.47
2023-01-20T21:40:14.902Z,5.54
2023-01-20T21:42:43.037Z,5.53
2023-01-20T21:45:10.961Z,5.45
2023-01-20T21:47:41.739Z,5.37
2023-01-20T21:50:29.507Z,5.29
2023-01-20T21:52:57.476Z,5.18
2023-01-20T21:55:25.476Z,5.08
2023-01-20T21:57:53.399Z,4.99
2023-01-20T22:00:22.128Z,4.90
2023-01-20T22:02:51.477Z,4.82
2023-01-20T22:05:19.413Z,4.77
2023-01-20T22:07:48.487Z,4.72
2023-01-20T22:10:16.809Z,4.67
2023-01-20T22:12:45.000Z,4.62
2023-01-20T22:15:13.541Z,4.58
2023-01-20T22:17:41.525Z,4.52
2023-01-20T22:20:12.334Z,4.42
2023-01-20T22:22:40.339Z,4.37
2023-01-20T22:25:08.785Z,4.37
2023-01-20T22:27:36.856Z,4.32
2023-01-20T22:30:05.235Z,4.30
2023-01-20T22:32:33.183Z,4.24
2023-01-20T22:35:01.153Z,4.25
2023-01-20T22:37:32.026Z,4.23
2023-01-20T22:40:02.065Z,4.20
2023-01-20T22:42:30.017Z,4.16
2023-01-20T22:44:58.107Z,4.02
2023-01-20T22:47:26.059Z,4.06
2023-01-20T22:49:56.661Z,4.07
2023-01-20T22:52:24.747Z,4.13
2023-01-20T22:54:54.032Z,4.20
2023-01-20T22:57:22.002Z,4.25
2023-01-20T22:59:49.966Z,4.19
2023-01-20T23:02:18.025Z,4.10
2023-01-20T23:04:45.966Z,4.11
2023-01-20T23:07:14.342Z,4.12
2023-01-20T23:09:42.312Z,4.13
2023-01-20T23:12:11.652Z,4.12
2023-01-20T23:14:57.472Z,4.07
2023-01-20T23:17:25.397Z,4.04
2023-01-20T23:19:53.316Z,4.04
2023-01-20T23:22:21.271Z,4.07
2023-01-20T23:24:49.262Z,4.05
2023-01-20T23:27:18.631Z,3.94
2023-01-20T23:29:46.989Z,3.82
2023-01-20T23:32:15.003Z,3.74
2023-01-20T23:34:43.017Z,3.64
2023-01-20T23:37:11.020Z,3.56
2023-01-20T23:39:39.007Z,3.48
2023-01-20T23:42:07.020Z,3.42
2023-01-20T23:44:36.330Z,3.40
2023-01-20T23:47:07.514Z,3.38
2023-01-20T23:49:35.471Z,3.32
2023-01-20T23:52:03.405Z,3.30
2023-01-20T23:54:31.341Z,3.30
2023-01-20T23:56:59.306Z,3.26
2023-01-20T23:59:27.256Z,3.17
